JBU1036 TJSJ-TIST
Flight info
| Callsign | JBU1036 |
|---|---|
| Flight time | 0h 15m |
| Altitude | 11000 |
| Route | SJU RTE2 STT |
| Aircraft | A21N/M-SDE3FGHIRWY/LB1 |
Departure
| Time | 2026-04-26 01:00 |
|---|---|
| Airport | Luis Munoz Marin International Airport (TJSJ) |
Arrival
| Time | 2026-04-26 01:15 |
|---|---|
| Airport | Cyril E. King Airport (TIST) |
| Time | Latitude | Longitude | Altitude | Speed | Heading |
|---|---|---|---|---|---|
| 2026-04-26 00:36 | 18.43807 | -66.00234 | 16 ft | 0 kts | 358° |
| 2026-04-26 00:50 | 18.43792 | -66.00233 | 16 ft | 2 kts | 357° |
| 2026-04-26 00:50 | 18.43777 | -66.00232 | 16 ft | 2 kts | 358° |
| 2026-04-26 00:50 | 18.43765 | -66.00232 | 16 ft | 1 kts | 30° |
| 2026-04-26 00:51 | 18.43759 | -66.00240 | 16 ft | 0 kts | 82° |
| 2026-04-26 00:51 | 18.43760 | -66.00246 | 16 ft | 1 kts | 89° |
| 2026-04-26 00:51 | 18.43760 | -66.00248 | 16 ft | 0 kts | 88° |
| 2026-04-26 00:53 | 18.43760 | -66.00246 | 16 ft | 0 kts | 88° |
| 2026-04-26 00:53 | 18.43760 | -66.00233 | 16 ft | 2 kts | 83° |
| 2026-04-26 00:54 | 18.43765 | -66.00210 | 16 ft | 3 kts | 76° |
| 2026-04-26 00:54 | 18.43775 | -66.00176 | 16 ft | 5 kts | 71° |
| 2026-04-26 00:54 | 18.43790 | -66.00128 | 16 ft | 7 kts | 71° |
| 2026-04-26 00:54 | 18.43820 | -66.00075 | 16 ft | 8 kts | 42° |
| 2026-04-26 00:55 | 18.43880 | -66.00064 | 16 ft | 9 kts | 344° |
| 2026-04-26 00:55 | 18.43944 | -66.00091 | 16 ft | 10 kts | 337° |
| 2026-04-26 00:55 | 18.44012 | -66.00121 | 16 ft | 10 kts | 337° |
| 2026-04-26 00:55 | 18.44082 | -66.00153 | 16 ft | 11 kts | 337° |
| 2026-04-26 00:56 | 18.44156 | -66.00185 | 16 ft | 11 kts | 337° |
| 2026-04-26 00:56 | 18.44227 | -66.00227 | 16 ft | 9 kts | 324° |
| 2026-04-26 00:56 | 18.44279 | -66.00257 | 16 ft | 8 kts | 333° |
| 2026-04-26 00:56 | 18.44324 | -66.00312 | 16 ft | 12 kts | 287° |
| 2026-04-26 00:57 | 18.44312 | -66.00417 | 16 ft | 17 kts | 248° |
| 2026-04-26 00:57 | 18.44259 | -66.00545 | 16 ft | 20 kts | 246° |
| 2026-04-26 00:57 | 18.44196 | -66.00697 | 16 ft | 24 kts | 247° |
| 2026-04-26 00:57 | 18.44127 | -66.00871 | 16 ft | 27 kts | 247° |
| 2026-04-26 00:58 | 18.44052 | -66.01057 | 17 ft | 27 kts | 248° |
| 2026-04-26 00:58 | 18.43982 | -66.01234 | 17 ft | 25 kts | 248° |
| 2026-04-26 00:58 | 18.43913 | -66.01379 | 17 ft | 17 kts | 234° |
| 2026-04-26 00:58 | 18.43878 | -66.01450 | 17 ft | 6 kts | 311° |
| 2026-04-26 00:59 | 18.43907 | -66.01418 | 17 ft | 8 kts | 69° |
| 2026-04-26 00:59 | 18.43991 | -66.01208 | 17 ft | 66 kts | 66° |
| 2026-04-26 00:59 | 18.44263 | -66.00541 | 16 ft | 129 kts | 67° |
| 2026-04-26 00:59 | 18.44688 | -65.99486 | 31 ft | 178 kts | 66° |
| 2026-04-26 01:00 | 18.45196 | -65.98248 | 513 ft | 182 kts | 64° |
| 2026-04-26 01:00 | 18.45707 | -65.97074 | 1213 ft | 179 kts | 64° |
| 2026-04-26 01:00 | 18.46222 | -65.95891 | 1833 ft | 180 kts | 65° |
| 2026-04-26 01:00 | 18.46740 | -65.94650 | 2189 ft | 194 kts | 72° |
| 2026-04-26 01:01 | 18.46844 | -65.93185 | 2499 ft | 211 kts | 93° |
| 2026-04-26 01:01 | 18.46679 | -65.91583 | 2818 ft | 228 kts | 96° |
| 2026-04-26 01:01 | 18.46496 | -65.89838 | 3083 ft | 250 kts | 95° |
| 2026-04-26 01:01 | 18.46347 | -65.87978 | 3528 ft | 264 kts | 93° |
| 2026-04-26 01:02 | 18.46228 | -65.86031 | 4219 ft | 269 kts | 92° |
| 2026-04-26 01:02 | 18.46129 | -65.84066 | 4966 ft | 271 kts | 92° |
| 2026-04-26 01:02 | 18.46036 | -65.82098 | 5676 ft | 274 kts | 93° |
| 2026-04-26 01:02 | 18.45961 | -65.80078 | 6368 ft | 278 kts | 90° |
| 2026-04-26 01:03 | 18.46014 | -65.78031 | 7005 ft | 282 kts | 86° |
| 2026-04-26 01:03 | 18.46137 | -65.75995 | 7660 ft | 285 kts | 86° |
| 2026-04-26 01:03 | 18.46277 | -65.73889 | 8342 ft | 288 kts | 85° |
| 2026-04-26 01:03 | 18.46417 | -65.71803 | 8914 ft | 294 kts | 85° |
| 2026-04-26 01:04 | 18.46561 | -65.69624 | 9427 ft | 301 kts | 85° |
| 2026-04-26 01:04 | 18.46706 | -65.67423 | 10019 ft | 305 kts | 85° |
| 2026-04-26 01:04 | 18.46854 | -65.65183 | 10587 ft | 309 kts | 86° |
| 2026-04-26 01:04 | 18.47001 | -65.62931 | 10895 ft | 312 kts | 86° |
| 2026-04-26 01:05 | 18.47149 | -65.60643 | 10998 ft | 310 kts | 86° |
| 2026-04-26 01:05 | 18.47292 | -65.58405 | 10696 ft | 310 kts | 86° |
| 2026-04-26 01:05 | 18.47439 | -65.56110 | 10230 ft | 311 kts | 85° |
| 2026-04-26 01:05 | 18.47582 | -65.53876 | 9927 ft | 307 kts | 85° |
| 2026-04-26 01:06 | 18.47725 | -65.51640 | 9622 ft | 303 kts | 85° |
| 2026-04-26 01:06 | 18.47865 | -65.49458 | 9286 ft | 300 kts | 85° |
| 2026-04-26 01:06 | 18.47908 | -65.47285 | 8911 ft | 299 kts | 98° |
| 2026-04-26 01:06 | 18.47119 | -65.45299 | 8503 ft | 295 kts | 130° |
| 2026-04-26 01:07 | 18.45684 | -65.43787 | 8169 ft | 291 kts | 137° |
| 2026-04-26 01:07 | 18.44203 | -65.42300 | 7790 ft | 290 kts | 137° |
| 2026-04-26 01:07 | 18.42766 | -65.40821 | 7438 ft | 288 kts | 136° |
| 2026-04-26 01:07 | 18.41356 | -65.39342 | 7091 ft | 286 kts | 135° |
| 2026-04-26 01:08 | 18.39948 | -65.37849 | 6713 ft | 285 kts | 135° |
| 2026-04-26 01:08 | 18.38566 | -65.36380 | 6356 ft | 283 kts | 135° |
| 2026-04-26 01:08 | 18.37182 | -65.34907 | 6014 ft | 281 kts | 135° |
| 2026-04-26 01:08 | 18.35814 | -65.33447 | 5666 ft | 279 kts | 135° |
| 2026-04-26 01:09 | 18.34460 | -65.32005 | 5331 ft | 277 kts | 135° |
| 2026-04-26 01:09 | 18.33127 | -65.30544 | 4987 ft | 275 kts | 130° |
| 2026-04-26 01:09 | 18.32309 | -65.28755 | 4585 ft | 276 kts | 101° |
| 2026-04-26 01:09 | 18.32262 | -65.26749 | 4255 ft | 273 kts | 86° |
| 2026-04-26 01:10 | 18.32454 | -65.24784 | 3925 ft | 271 kts | 84° |
| 2026-04-26 01:10 | 18.32629 | -65.22809 | 3585 ft | 269 kts | 86° |
| 2026-04-26 01:10 | 18.32752 | -65.20859 | 3261 ft | 266 kts | 88° |
| 2026-04-26 01:10 | 18.32840 | -65.18956 | 3044 ft | 254 kts | 89° |
| 2026-04-26 01:11 | 18.32913 | -65.17122 | 3027 ft | 245 kts | 89° |
| 2026-04-26 01:11 | 18.32979 | -65.15414 | 2964 ft | 226 kts | 89° |
| 2026-04-26 01:11 | 18.33044 | -65.13780 | 2802 ft | 215 kts | 89° |
| 2026-04-26 01:11 | 18.33105 | -65.12279 | 2538 ft | 202 kts | 89° |
| 2026-04-26 01:12 | 18.33165 | -65.10829 | 2256 ft | 188 kts | 89° |
| 2026-04-26 01:12 | 18.33219 | -65.09533 | 2027 ft | 170 kts | 90° |
| 2026-04-26 01:12 | 18.33270 | -65.08347 | 1776 ft | 153 kts | 90° |
| 2026-04-26 01:12 | 18.33314 | -65.07265 | 1567 ft | 145 kts | 90° |
| 2026-04-26 01:13 | 18.33357 | -65.06203 | 1407 ft | 145 kts | 90° |
| 2026-04-26 01:13 | 18.33402 | -65.05154 | 1240 ft | 145 kts | 89° |
| 2026-04-26 01:13 | 18.33447 | -65.04089 | 1068 ft | 145 kts | 90° |
| 2026-04-26 01:13 | 18.33491 | -65.03024 | 886 ft | 144 kts | 90° |
| 2026-04-26 01:14 | 18.33543 | -65.01978 | 704 ft | 145 kts | 88° |
| 2026-04-26 01:14 | 18.33604 | -65.00912 | 545 ft | 145 kts | 90° |
| 2026-04-26 01:14 | 18.33645 | -64.99849 | 374 ft | 145 kts | 91° |
| 2026-04-26 01:14 | 18.33675 | -64.98797 | 161 ft | 144 kts | 91° |
| 2026-04-26 01:15 | 18.33715 | -64.97752 | 28 ft | 136 kts | 90° |
| 2026-04-26 01:15 | 18.33745 | -64.97021 | 31 ft | 70 kts | 88° |
| 2026-04-26 01:15 | 18.33746 | -64.96721 | 31 ft | 17 kts | 122° |
| 2026-04-26 01:15 | 18.33685 | -64.96716 | 31 ft | 9 kts | 236° |
| 2026-04-26 01:16 | 18.33675 | -64.96776 | 31 ft | 7 kts | 268° |
| 2026-04-26 01:16 | 18.33674 | -64.96831 | 31 ft | 9 kts | 268° |
| 2026-04-26 01:16 | 18.33671 | -64.96932 | 31 ft | 18 kts | 267° |
| 2026-04-26 01:16 | 18.33663 | -64.97074 | 31 ft | 19 kts | 267° |
| 2026-04-26 01:17 | 18.33635 | -64.97160 | 30 ft | 9 kts | 205° |
| 2026-04-26 01:17 | 18.33599 | -64.97169 | 31 ft | 0 kts | 190° |